sensor_id;sensor_type;location;lat;lon;timestamp;P1;durP1;ratioP1;P2;durP2;ratioP2
61590;SDS011;57639;52.410;-1.966;2022-12-18T00:01:42;4.18;;;2.60;;
61590;SDS011;57639;52.410;-1.966;2022-12-18T00:04:48;3.63;;;2.67;;
61590;SDS011;57639;52.410;-1.966;2022-12-18T00:07:51;4.20;;;2.78;;
61590;SDS011;57639;52.410;-1.966;2022-12-18T00:11:02;4.30;;;2.78;;
61590;SDS011;57639;52.410;-1.966;2022-12-18T00:14:12;4.03;;;2.63;;
61590;SDS011;57639;52.410;-1.966;2022-12-18T00:17:18;3.03;;;2.40;;
61590;SDS011;57639;52.410;-1.966;2022-12-18T00:20:24;3.50;;;2.78;;
61590;SDS011;57639;52.410;-1.966;2022-12-18T00:23:31;3.42;;;2.60;;
61590;SDS011;57639;52.410;-1.966;2022-12-18T00:26:38;3.97;;;2.70;;
61590;SDS011;57639;52.410;-1.966;2022-12-18T00:29:45;4.18;;;2.65;;
61590;SDS011;57639;52.410;-1.966;2022-12-18T00:32:53;3.22;;;2.60;;
61590;SDS011;57639;52.410;-1.966;2022-12-18T00:36:00;3.25;;;2.55;;
61590;SDS011;57639;52.410;-1.966;2022-12-18T00:39:07;3.58;;;2.55;;
61590;SDS011;57639;52.410;-1.966;2022-12-18T00:42:13;4.05;;;2.40;;
61590;SDS011;57639;52.410;-1.966;2022-12-18T00:45:37;4.07;;;2.60;;
61590;SDS011;57639;52.410;-1.966;2022-12-18T00:48:43;4.50;;;2.72;;
61590;SDS011;57639;52.410;-1.966;2022-12-18T00:51:47;3.40;;;2.28;;
61590;SDS011;57639;52.410;-1.966;2022-12-18T00:54:54;3.42;;;2.35;;
61590;SDS011;57639;52.410;-1.966;2022-12-18T00:58:00;3.40;;;2.40;;
61590;SDS011;57639;52.410;-1.966;2022-12-18T01:01:12;3.65;;;2.28;;
61590;SDS011;57639;52.410;-1.966;2022-12-18T01:04:16;3.60;;;2.42;;
61590;SDS011;57639;52.410;-1.966;2022-12-18T01:07:24;2.85;;;2.25;;
61590;SDS011;57639;52.410;-1.966;2022-12-18T01:10:30;3.58;;;2.30;;
61590;SDS011;57639;52.410;-1.966;2022-12-18T01:13:36;3.10;;;2.50;;
61590;SDS011;57639;52.410;-1.966;2022-12-18T01:16:43;3.80;;;2.42;;
61590;SDS011;57639;52.410;-1.966;2022-12-18T01:19:50;3.33;;;2.42;;
61590;SDS011;57639;52.410;-1.966;2022-12-18T01:22:56;3.85;;;2.65;;
61590;SDS011;57639;52.410;-1.966;2022-12-18T01:26:05;3.55;;;2.42;;
61590;SDS011;57639;52.410;-1.966;2022-12-18T01:29:17;3.60;;;2.60;;
61590;SDS011;57639;52.410;-1.966;2022-12-18T01:32:28;3.25;;;2.30;;
61590;SDS011;57639;52.410;-1.966;2022-12-18T01:35:39;3.42;;;2.40;;
61590;SDS011;57639;52.410;-1.966;2022-12-18T01:38:47;3.72;;;2.65;;
61590;SDS011;57639;52.410;-1.966;2022-12-18T01:41:51;3.13;;;2.38;;
61590;SDS011;57639;52.410;-1.966;2022-12-18T01:45:21;2.95;;;2.38;;
61590;SDS011;57639;52.410;-1.966;2022-12-18T01:48:32;3.35;;;2.05;;
61590;SDS011;57639;52.410;-1.966;2022-12-18T01:51:38;3.35;;;2.50;;
61590;SDS011;57639;52.410;-1.966;2022-12-18T01:54:42;2.40;;;2.00;;
61590;SDS011;57639;52.410;-1.966;2022-12-18T01:57:51;3.50;;;2.30;;
61590;SDS011;57639;52.410;-1.966;2022-12-18T02:00:59;3.17;;;2.35;;
61590;SDS011;57639;52.410;-1.966;2022-12-18T02:07:32;3.38;;;2.40;;
61590;SDS011;57639;52.410;-1.966;2022-12-18T02:10:45;3.67;;;2.50;;
61590;SDS011;57639;52.410;-1.966;2022-12-18T02:13:59;3.95;;;2.38;;
61590;SDS011;57639;52.410;-1.966;2022-12-18T02:17:14;3.55;;;2.45;;
61590;SDS011;57639;52.410;-1.966;2022-12-18T02:20:28;3.63;;;2.50;;
61590;SDS011;57639;52.410;-1.966;2022-12-18T02:23:44;3.28;;;2.40;;
61590;SDS011;57639;52.410;-1.966;2022-12-18T02:26:59;3.95;;;2.67;;
61590;SDS011;57639;52.410;-1.966;2022-12-18T02:30:08;2.90;;;2.30;;
61590;SDS011;57639;52.410;-1.966;2022-12-18T02:33:15;3.20;;;2.42;;
61590;SDS011;57639;52.410;-1.966;2022-12-18T02:36:21;3.33;;;2.42;;
61590;SDS011;57639;52.410;-1.966;2022-12-18T02:39:28;3.80;;;2.30;;
61590;SDS011;57639;52.410;-1.966;2022-12-18T02:42:38;4.75;;;2.75;;
61590;SDS011;57639;52.410;-1.966;2022-12-18T02:45:48;3.42;;;2.42;;
61590;SDS011;57639;52.410;-1.966;2022-12-18T02:49:01;3.70;;;2.60;;
61590;SDS011;57639;52.410;-1.966;2022-12-18T02:52:18;3.50;;;2.47;;
61590;SDS011;57639;52.410;-1.966;2022-12-18T02:55:35;4.45;;;2.95;;
61590;SDS011;57639;52.410;-1.966;2022-12-18T02:58:54;3.47;;;2.58;;
61590;SDS011;57639;52.410;-1.966;2022-12-18T03:02:06;4.70;;;2.55;;
61590;SDS011;57639;52.410;-1.966;2022-12-18T03:05:22;3.90;;;2.70;;
61590;SDS011;57639;52.410;-1.966;2022-12-18T03:08:34;4.20;;;2.75;;
61590;SDS011;57639;52.410;-1.966;2022-12-18T03:11:45;3.42;;;2.67;;
61590;SDS011;57639;52.410;-1.966;2022-12-18T03:15:14;3.90;;;2.85;;
61590;SDS011;57639;52.410;-1.966;2022-12-18T03:18:27;4.10;;;2.95;;
61590;SDS011;57639;52.410;-1.966;2022-12-18T03:21:38;3.40;;;2.60;;
61590;SDS011;57639;52.410;-1.966;2022-12-18T03:24:48;3.65;;;2.78;;
61590;SDS011;57639;52.410;-1.966;2022-12-18T03:27:58;4.40;;;2.93;;
61590;SDS011;57639;52.410;-1.966;2022-12-18T03:31:10;3.75;;;2.80;;
61590;SDS011;57639;52.410;-1.966;2022-12-18T03:34:19;3.35;;;2.70;;
61590;SDS011;57639;52.410;-1.966;2022-12-18T03:37:30;4.72;;;2.70;;
61590;SDS011;57639;52.410;-1.966;2022-12-18T03:40:40;3.95;;;2.67;;
61590;SDS011;57639;52.410;-1.966;2022-12-18T03:43:56;5.35;;;3.00;;
61590;SDS011;57639;52.410;-1.966;2022-12-18T03:50:20;4.32;;;2.92;;
61590;SDS011;57639;52.410;-1.966;2022-12-18T03:53:32;3.63;;;3.08;;
61590;SDS011;57639;52.410;-1.966;2022-12-18T03:56:46;4.45;;;2.88;;
61590;SDS011;57639;52.410;-1.966;2022-12-18T04:00:01;7.00;;;3.15;;
61590;SDS011;57639;52.410;-1.966;2022-12-18T04:03:11;7.78;;;3.20;;
61590;SDS011;57639;52.410;-1.966;2022-12-18T04:06:20;7.55;;;3.50;;
61590;SDS011;57639;52.410;-1.966;2022-12-18T04:09:26;7.88;;;4.07;;
61590;SDS011;57639;52.410;-1.966;2022-12-18T04:12:33;4.60;;;3.10;;
61590;SDS011;57639;52.410;-1.966;2022-12-18T04:15:40;6.95;;;4.00;;
61590;SDS011;57639;52.410;-1.966;2022-12-18T04:18:46;5.80;;;3.65;;
61590;SDS011;57639;52.410;-1.966;2022-12-18T04:21:52;4.93;;;3.75;;
61590;SDS011;57639;52.410;-1.966;2022-12-18T04:24:59;6.72;;;3.75;;
61590;SDS011;57639;52.410;-1.966;2022-12-18T04:28:05;4.72;;;3.47;;
61590;SDS011;57639;52.410;-1.966;2022-12-18T04:31:12;5.47;;;3.47;;
61590;SDS011;57639;52.410;-1.966;2022-12-18T04:34:21;7.30;;;3.67;;
61590;SDS011;57639;52.410;-1.966;2022-12-18T04:37:27;6.07;;;3.77;;
61590;SDS011;57639;52.410;-1.966;2022-12-18T04:40:33;7.55;;;4.25;;
61590;SDS011;57639;52.410;-1.966;2022-12-18T04:43:39;6.22;;;3.63;;
61590;SDS011;57639;52.410;-1.966;2022-12-18T04:46:43;5.82;;;3.90;;
61590;SDS011;57639;52.410;-1.966;2022-12-18T04:49:52;7.38;;;4.10;;
61590;SDS011;57639;52.410;-1.966;2022-12-18T04:52:57;7.20;;;3.88;;
61590;SDS011;57639;52.410;-1.966;2022-12-18T04:56:04;5.57;;;3.92;;
61590;SDS011;57639;52.410;-1.966;2022-12-18T04:59:09;7.93;;;4.07;;
61590;SDS011;57639;52.410;-1.966;2022-12-18T05:02:16;7.07;;;3.97;;
61590;SDS011;57639;52.410;-1.966;2022-12-18T05:05:25;6.20;;;4.38;;
61590;SDS011;57639;52.410;-1.966;2022-12-18T05:08:29;6.65;;;4.57;;
61590;SDS011;57639;52.410;-1.966;2022-12-18T05:11:35;7.97;;;4.28;;
61590;SDS011;57639;52.410;-1.966;2022-12-18T05:14:41;13.02;;;4.60;;
61590;SDS011;57639;52.410;-1.966;2022-12-18T05:17:45;12.27;;;4.70;;
61590;SDS011;57639;52.410;-1.966;2022-12-18T05:20:54;11.07;;;4.88;;
61590;SDS011;57639;52.410;-1.966;2022-12-18T05:24:01;12.10;;;4.50;;
61590;SDS011;57639;52.410;-1.966;2022-12-18T05:27:05;7.40;;;4.65;;
61590;SDS011;57639;52.410;-1.966;2022-12-18T05:30:13;14.82;;;4.90;;
61590;SDS011;57639;52.410;-1.966;2022-12-18T05:33:18;8.88;;;4.60;;
61590;SDS011;57639;52.410;-1.966;2022-12-18T05:36:27;9.15;;;4.50;;
61590;SDS011;57639;52.410;-1.966;2022-12-18T05:39:33;8.38;;;5.00;;
61590;SDS011;57639;52.410;-1.966;2022-12-18T05:42:40;9.48;;;4.50;;
61590;SDS011;57639;52.410;-1.966;2022-12-18T05:45:44;10.75;;;5.10;;
61590;SDS011;57639;52.410;-1.966;2022-12-18T05:48:51;9.07;;;4.40;;
61590;SDS011;57639;52.410;-1.966;2022-12-18T05:51:59;8.65;;;4.97;;
61590;SDS011;57639;52.410;-1.966;2022-12-18T05:55:05;10.67;;;5.43;;
61590;SDS011;57639;52.410;-1.966;2022-12-18T05:58:12;8.23;;;5.10;;
61590;SDS011;57639;52.410;-1.966;2022-12-18T06:01:21;8.95;;;4.85;;
61590;SDS011;57639;52.410;-1.966;2022-12-18T06:04:28;9.02;;;4.47;;
61590;SDS011;57639;52.410;-1.966;2022-12-18T06:07:39;7.50;;;5.03;;
61590;SDS011;57639;52.410;-1.966;2022-12-18T06:10:49;9.02;;;5.88;;
61590;SDS011;57639;52.410;-1.966;2022-12-18T06:13:56;9.23;;;5.60;;
61590;SDS011;57639;52.410;-1.966;2022-12-18T06:17:04;7.78;;;5.57;;
61590;SDS011;57639;52.410;-1.966;2022-12-18T06:20:08;7.38;;;5.35;;
61590;SDS011;57639;52.410;-1.966;2022-12-18T06:23:18;10.82;;;6.07;;
61590;SDS011;57639;52.410;-1.966;2022-12-18T06:26:22;7.82;;;5.55;;
61590;SDS011;57639;52.410;-1.966;2022-12-18T06:29:29;7.93;;;5.68;;
61590;SDS011;57639;52.410;-1.966;2022-12-18T06:32:35;9.52;;;6.05;;
61590;SDS011;57639;52.410;-1.966;2022-12-18T06:35:39;9.05;;;5.78;;
61590;SDS011;57639;52.410;-1.966;2022-12-18T06:38:48;8.25;;;5.50;;
61590;SDS011;57639;52.410;-1.966;2022-12-18T06:41:54;8.35;;;5.32;;
61590;SDS011;57639;52.410;-1.966;2022-12-18T06:45:00;9.50;;;5.80;;
61590;SDS011;57639;52.410;-1.966;2022-12-18T06:48:06;8.90;;;5.68;;
61590;SDS011;57639;52.410;-1.966;2022-12-18T06:51:12;8.55;;;5.93;;
61590;SDS011;57639;52.410;-1.966;2022-12-18T06:54:25;7.67;;;5.90;;
61590;SDS011;57639;52.410;-1.966;2022-12-18T06:57:31;8.73;;;6.30;;
61590;SDS011;57639;52.410;-1.966;2022-12-18T07:00:37;9.55;;;6.60;;
61590;SDS011;57639;52.410;-1.966;2022-12-18T07:03:43;9.35;;;6.13;;
61590;SDS011;57639;52.410;-1.966;2022-12-18T07:06:49;8.93;;;6.20;;
61590;SDS011;57639;52.410;-1.966;2022-12-18T07:09:57;8.88;;;6.70;;
61590;SDS011;57639;52.410;-1.966;2022-12-18T07:13:01;8.88;;;6.43;;
61590;SDS011;57639;52.410;-1.966;2022-12-18T07:16:09;9.68;;;6.32;;
61590;SDS011;57639;52.410;-1.966;2022-12-18T07:19:15;7.10;;;5.47;;
61590;SDS011;57639;52.410;-1.966;2022-12-18T07:22:21;9.07;;;6.00;;
61590;SDS011;57639;52.410;-1.966;2022-12-18T07:25:28;9.63;;;6.55;;
61590;SDS011;57639;52.410;-1.966;2022-12-18T07:28:35;6.88;;;5.40;;
61590;SDS011;57639;52.410;-1.966;2022-12-18T07:31:42;8.63;;;6.45;;
61590;SDS011;57639;52.410;-1.966;2022-12-18T07:34:48;8.45;;;6.13;;
61590;SDS011;57639;52.410;-1.966;2022-12-18T07:37:52;9.20;;;6.20;;
61590;SDS011;57639;52.410;-1.966;2022-12-18T07:41:04;10.20;;;6.80;;
61590;SDS011;57639;52.410;-1.966;2022-12-18T07:44:11;10.50;;;6.65;;
61590;SDS011;57639;52.410;-1.966;2022-12-18T07:47:18;9.85;;;6.90;;
61590;SDS011;57639;52.410;-1.966;2022-12-18T07:50:24;9.23;;;6.38;;
61590;SDS011;57639;52.410;-1.966;2022-12-18T07:53:30;7.78;;;6.18;;
61590;SDS011;57639;52.410;-1.966;2022-12-18T07:56:39;8.63;;;5.63;;
61590;SDS011;57639;52.410;-1.966;2022-12-18T07:59:46;7.90;;;5.60;;
61590;SDS011;57639;52.410;-1.966;2022-12-18T08:02:52;8.57;;;6.03;;
61590;SDS011;57639;52.410;-1.966;2022-12-18T08:05:58;7.75;;;5.80;;
61590;SDS011;57639;52.410;-1.966;2022-12-18T08:09:05;7.20;;;5.60;;
61590;SDS011;57639;52.410;-1.966;2022-12-18T08:12:14;6.47;;;5.30;;
61590;SDS011;57639;52.410;-1.966;2022-12-18T08:15:20;7.15;;;5.32;;
61590;SDS011;57639;52.410;-1.966;2022-12-18T08:18:27;6.28;;;4.78;;
61590;SDS011;57639;52.410;-1.966;2022-12-18T08:21:36;6.05;;;4.72;;
61590;SDS011;57639;52.410;-1.966;2022-12-18T08:24:42;7.70;;;5.15;;
61590;SDS011;57639;52.410;-1.966;2022-12-18T08:27:52;6.07;;;4.80;;
61590;SDS011;57639;52.410;-1.966;2022-12-18T08:30:59;6.22;;;4.85;;
61590;SDS011;57639;52.410;-1.966;2022-12-18T08:34:09;6.68;;;4.60;;
61590;SDS011;57639;52.410;-1.966;2022-12-18T08:37:15;7.15;;;4.60;;
61590;SDS011;57639;52.410;-1.966;2022-12-18T08:40:21;7.28;;;4.60;;
61590;SDS011;57639;52.410;-1.966;2022-12-18T08:43:30;5.95;;;4.68;;
61590;SDS011;57639;52.410;-1.966;2022-12-18T08:46:52;5.93;;;4.78;;
61590;SDS011;57639;52.410;-1.966;2022-12-18T08:49:58;6.13;;;4.47;;
61590;SDS011;57639;52.410;-1.966;2022-12-18T08:53:02;5.88;;;4.60;;
61590;SDS011;57639;52.410;-1.966;2022-12-18T08:56:09;5.53;;;4.30;;
61590;SDS011;57639;52.410;-1.966;2022-12-18T08:59:18;6.00;;;4.05;;
61590;SDS011;57639;52.410;-1.966;2022-12-18T09:02:25;5.57;;;4.13;;
61590;SDS011;57639;52.410;-1.966;2022-12-18T09:05:30;5.60;;;3.72;;
61590;SDS011;57639;52.410;-1.966;2022-12-18T09:08:36;6.20;;;4.57;;
61590;SDS011;57639;52.410;-1.966;2022-12-18T09:11:40;9.45;;;4.22;;
61590;SDS011;57639;52.410;-1.966;2022-12-18T09:14:52;5.63;;;4.00;;
61590;SDS011;57639;52.410;-1.966;2022-12-18T09:18:07;5.88;;;4.35;;
61590;SDS011;57639;52.410;-1.966;2022-12-18T09:21:27;8.10;;;4.57;;
61590;SDS011;57639;52.410;-1.966;2022-12-18T09:24:32;8.27;;;4.43;;
61590;SDS011;57639;52.410;-1.966;2022-12-18T09:27:39;7.15;;;4.50;;
61590;SDS011;57639;52.410;-1.966;2022-12-18T09:30:47;4.93;;;3.63;;
61590;SDS011;57639;52.410;-1.966;2022-12-18T09:33:57;6.18;;;3.75;;
61590;SDS011;57639;52.410;-1.966;2022-12-18T09:37:03;5.90;;;3.92;;
61590;SDS011;57639;52.410;-1.966;2022-12-18T09:40:12;4.85;;;3.45;;
61590;SDS011;57639;52.410;-1.966;2022-12-18T09:43:22;12.95;;;3.78;;
61590;SDS011;57639;52.410;-1.966;2022-12-18T09:46:38;10.15;;;3.60;;
61590;SDS011;57639;52.410;-1.966;2022-12-18T09:49:50;9.30;;;4.10;;
61590;SDS011;57639;52.410;-1.966;2022-12-18T09:52:59;9.20;;;3.95;;
61590;SDS011;57639;52.410;-1.966;2022-12-18T09:56:12;10.68;;;4.03;;
61590;SDS011;57639;52.410;-1.966;2022-12-18T09:59:25;12.95;;;3.92;;
61590;SDS011;57639;52.410;-1.966;2022-12-18T10:02:42;10.07;;;4.28;;
61590;SDS011;57639;52.410;-1.966;2022-12-18T10:05:52;7.43;;;3.63;;
61590;SDS011;57639;52.410;-1.966;2022-12-18T10:09:05;5.45;;;3.50;;
61590;SDS011;57639;52.410;-1.966;2022-12-18T10:12:19;8.10;;;3.40;;
61590;SDS011;57639;52.410;-1.966;2022-12-18T10:15:30;5.32;;;3.22;;
61590;SDS011;57639;52.410;-1.966;2022-12-18T10:18:54;9.10;;;4.20;;
61590;SDS011;57639;52.410;-1.966;2022-12-18T10:22:08;6.05;;;3.58;;
61590;SDS011;57639;52.410;-1.966;2022-12-18T10:25:22;5.35;;;3.05;;
61590;SDS011;57639;52.410;-1.966;2022-12-18T10:28:29;4.07;;;2.92;;
61590;SDS011;57639;52.410;-1.966;2022-12-18T10:31:39;5.95;;;3.20;;
61590;SDS011;57639;52.410;-1.966;2022-12-18T10:34:50;5.03;;;3.30;;
61590;SDS011;57639;52.410;-1.966;2022-12-18T10:38:02;10.75;;;3.50;;
61590;SDS011;57639;52.410;-1.966;2022-12-18T10:41:23;9.13;;;3.45;;
61590;SDS011;57639;52.410;-1.966;2022-12-18T10:44:33;7.82;;;3.60;;
61590;SDS011;57639;52.410;-1.966;2022-12-18T10:47:41;7.93;;;3.45;;
61590;SDS011;57639;52.410;-1.966;2022-12-18T10:50:51;9.13;;;3.85;;
61590;SDS011;57639;52.410;-1.966;2022-12-18T10:53:56;6.57;;;3.97;;
61590;SDS011;57639;52.410;-1.966;2022-12-18T10:57:15;8.45;;;3.38;;
61590;SDS011;57639;52.410;-1.966;2022-12-18T11:00:23;6.95;;;3.75;;
61590;SDS011;57639;52.410;-1.966;2022-12-18T11:03:31;8.23;;;3.30;;
61590;SDS011;57639;52.410;-1.966;2022-12-18T11:06:52;7.10;;;3.60;;
61590;SDS011;57639;52.410;-1.966;2022-12-18T11:10:02;7.40;;;3.70;;
61590;SDS011;57639;52.410;-1.966;2022-12-18T11:13:16;10.93;;;3.20;;
61590;SDS011;57639;52.410;-1.966;2022-12-18T11:16:25;9.70;;;3.90;;
61590;SDS011;57639;52.410;-1.966;2022-12-18T11:19:32;8.02;;;3.80;;
61590;SDS011;57639;52.410;-1.966;2022-12-18T11:22:42;8.32;;;3.80;;
61590;SDS011;57639;52.410;-1.966;2022-12-18T11:25:50;8.85;;;3.65;;
61590;SDS011;57639;52.410;-1.966;2022-12-18T11:29:07;10.18;;;3.40;;
61590;SDS011;57639;52.410;-1.966;2022-12-18T11:32:19;8.15;;;3.47;;
61590;SDS011;57639;52.410;-1.966;2022-12-18T11:35:43;6.97;;;3.55;;
61590;SDS011;57639;52.410;-1.966;2022-12-18T11:38:55;7.40;;;3.63;;
61590;SDS011;57639;52.410;-1.966;2022-12-18T11:42:05;7.10;;;3.33;;
61590;SDS011;57639;52.410;-1.966;2022-12-18T11:45:23;10.60;;;3.53;;
61590;SDS011;57639;52.410;-1.966;2022-12-18T11:48:34;9.57;;;3.70;;
61590;SDS011;57639;52.410;-1.966;2022-12-18T11:51:43;9.40;;;3.72;;
61590;SDS011;57639;52.410;-1.966;2022-12-18T11:55:01;7.78;;;3.90;;
61590;SDS011;57639;52.410;-1.966;2022-12-18T11:58:16;8.77;;;3.90;;
61590;SDS011;57639;52.410;-1.966;2022-12-18T12:01:36;7.90;;;4.07;;
61590;SDS011;57639;52.410;-1.966;2022-12-18T12:05:01;10.65;;;4.40;;
61590;SDS011;57639;52.410;-1.966;2022-12-18T12:08:22;8.48;;;4.07;;
61590;SDS011;57639;52.410;-1.966;2022-12-18T12:11:42;5.88;;;3.78;;
61590;SDS011;57639;52.410;-1.966;2022-12-18T12:14:56;6.35;;;3.80;;
61590;SDS011;57639;52.410;-1.966;2022-12-18T12:18:08;7.15;;;3.50;;
61590;SDS011;57639;52.410;-1.966;2022-12-18T12:21:28;7.00;;;3.53;;
61590;SDS011;57639;52.410;-1.966;2022-12-18T12:24:48;6.72;;;3.45;;
61590;SDS011;57639;52.410;-1.966;2022-12-18T12:28:11;5.65;;;3.42;;
61590;SDS011;57639;52.410;-1.966;2022-12-18T12:31:25;6.20;;;3.33;;
61590;SDS011;57639;52.410;-1.966;2022-12-18T12:34:41;5.80;;;3.20;;
61590;SDS011;57639;52.410;-1.966;2022-12-18T12:37:57;7.45;;;3.30;;
61590;SDS011;57639;52.410;-1.966;2022-12-18T12:41:12;4.40;;;3.20;;
61590;SDS011;57639;52.410;-1.966;2022-12-18T12:44:49;4.35;;;2.72;;
61590;SDS011;57639;52.410;-1.966;2022-12-18T12:47:58;5.75;;;3.10;;
61590;SDS011;57639;52.410;-1.966;2022-12-18T12:51:08;4.72;;;3.05;;
61590;SDS011;57639;52.410;-1.966;2022-12-18T12:54:19;6.93;;;3.05;;
61590;SDS011;57639;52.410;-1.966;2022-12-18T12:57:27;5.40;;;3.00;;
61590;SDS011;57639;52.410;-1.966;2022-12-18T13:00:44;5.03;;;3.22;;
61590;SDS011;57639;52.410;-1.966;2022-12-18T13:03:55;8.48;;;3.30;;
61590;SDS011;57639;52.410;-1.966;2022-12-18T13:07:10;5.90;;;3.70;;
61590;SDS011;57639;52.410;-1.966;2022-12-18T13:10:32;5.53;;;3.58;;
61590;SDS011;57639;52.410;-1.966;2022-12-18T13:13:49;6.25;;;3.85;;
61590;SDS011;57639;52.410;-1.966;2022-12-18T13:16:54;6.38;;;4.00;;
61590;SDS011;57639;52.410;-1.966;2022-12-18T13:20:20;5.60;;;3.77;;
61590;SDS011;57639;52.410;-1.966;2022-12-18T13:23:29;5.15;;;3.90;;
61590;SDS011;57639;52.410;-1.966;2022-12-18T13:26:37;5.90;;;3.83;;
61590;SDS011;57639;52.410;-1.966;2022-12-18T13:29:41;5.43;;;3.83;;
61590;SDS011;57639;52.410;-1.966;2022-12-18T13:32:52;5.68;;;4.05;;
61590;SDS011;57639;52.410;-1.966;2022-12-18T13:36:35;6.43;;;3.80;;
61590;SDS011;57639;52.410;-1.966;2022-12-18T13:39:41;6.18;;;3.58;;
61590;SDS011;57639;52.410;-1.966;2022-12-18T13:42:45;5.38;;;3.40;;
61590;SDS011;57639;52.410;-1.966;2022-12-18T13:46:18;5.35;;;3.47;;
61590;SDS011;57639;52.410;-1.966;2022-12-18T13:49:31;4.38;;;3.08;;
61590;SDS011;57639;52.410;-1.966;2022-12-18T13:52:43;5.82;;;3.10;;
61590;SDS011;57639;52.410;-1.966;2022-12-18T13:55:47;4.80;;;3.20;;
61590;SDS011;57639;52.410;-1.966;2022-12-18T14:02:26;5.68;;;3.20;;
61590;SDS011;57639;52.410;-1.966;2022-12-18T14:05:37;4.82;;;3.47;;
61590;SDS011;57639;52.410;-1.966;2022-12-18T14:08:44;5.68;;;3.10;;
61590;SDS011;57639;52.410;-1.966;2022-12-18T14:11:50;5.15;;;3.22;;
61590;SDS011;57639;52.410;-1.966;2022-12-18T14:15:20;5.22;;;3.08;;
61590;SDS011;57639;52.410;-1.966;2022-12-18T14:18:33;6.68;;;3.17;;
61590;SDS011;57639;52.410;-1.966;2022-12-18T14:21:49;5.93;;;3.20;;
61590;SDS011;57639;52.410;-1.966;2022-12-18T14:25:04;4.15;;;3.15;;
61590;SDS011;57639;52.410;-1.966;2022-12-18T14:28:18;5.75;;;3.40;;
61590;SDS011;57639;52.410;-1.966;2022-12-18T14:31:23;4.70;;;3.10;;
61590;SDS011;57639;52.410;-1.966;2022-12-18T14:34:31;4.22;;;2.97;;
61590;SDS011;57639;52.410;-1.966;2022-12-18T14:37:38;4.07;;;2.83;;
61590;SDS011;57639;52.410;-1.966;2022-12-18T14:40:44;4.38;;;2.90;;
61590;SDS011;57639;52.410;-1.966;2022-12-18T14:43:49;3.60;;;2.80;;
61590;SDS011;57639;52.410;-1.966;2022-12-18T14:46:56;4.82;;;2.83;;
61590;SDS011;57639;52.410;-1.966;2022-12-18T14:50:01;3.88;;;2.80;;
61590;SDS011;57639;52.410;-1.966;2022-12-18T14:53:18;4.05;;;2.88;;
61590;SDS011;57639;52.410;-1.966;2022-12-18T14:56:25;3.20;;;2.50;;
61590;SDS011;57639;52.410;-1.966;2022-12-18T14:59:32;2.97;;;2.35;;
61590;SDS011;57639;52.410;-1.966;2022-12-18T15:02:37;2.92;;;2.30;;
61590;SDS011;57639;52.410;-1.966;2022-12-18T15:05:43;3.97;;;2.60;;
61590;SDS011;57639;52.410;-1.966;2022-12-18T15:08:50;3.55;;;2.60;;
61590;SDS011;57639;52.410;-1.966;2022-12-18T15:11:57;3.33;;;2.30;;
61590;SDS011;57639;52.410;-1.966;2022-12-18T15:15:02;2.90;;;2.17;;
61590;SDS011;57639;52.410;-1.966;2022-12-18T15:18:11;2.60;;;2.10;;
61590;SDS011;57639;52.410;-1.966;2022-12-18T15:21:18;3.05;;;2.15;;
61590;SDS011;57639;52.410;-1.966;2022-12-18T15:24:29;2.28;;;1.90;;
61590;SDS011;57639;52.410;-1.966;2022-12-18T15:27:35;2.88;;;1.95;;
61590;SDS011;57639;52.410;-1.966;2022-12-18T15:30:57;2.60;;;1.98;;
61590;SDS011;57639;52.410;-1.966;2022-12-18T15:34:10;3.03;;;2.20;;
61590;SDS011;57639;52.410;-1.966;2022-12-18T15:37:21;2.50;;;1.90;;
61590;SDS011;57639;52.410;-1.966;2022-12-18T15:40:28;2.67;;;1.90;;
61590;SDS011;57639;52.410;-1.966;2022-12-18T15:43:53;2.72;;;1.80;;
61590;SDS011;57639;52.410;-1.966;2022-12-18T15:46:58;2.78;;;1.88;;
61590;SDS011;57639;52.410;-1.966;2022-12-18T15:50:10;1.87;;;1.47;;
61590;SDS011;57639;52.410;-1.966;2022-12-18T15:53:19;2.63;;;1.90;;
61590;SDS011;57639;52.410;-1.966;2022-12-18T15:56:27;2.00;;;1.60;;
61590;SDS011;57639;52.410;-1.966;2022-12-18T15:59:50;2.35;;;1.70;;
61590;SDS011;57639;52.410;-1.966;2022-12-18T16:02:58;2.10;;;1.70;;
61590;SDS011;57639;52.410;-1.966;2022-12-18T16:06:08;2.85;;;1.60;;
61590;SDS011;57639;52.410;-1.966;2022-12-18T16:09:12;1.85;;;1.50;;
61590;SDS011;57639;52.410;-1.966;2022-12-18T16:12:23;1.65;;;1.30;;
61590;SDS011;57639;52.410;-1.966;2022-12-18T16:15:42;2.25;;;1.50;;
61590;SDS011;57639;52.410;-1.966;2022-12-18T16:18:50;1.88;;;1.40;;
61590;SDS011;57639;52.410;-1.966;2022-12-18T16:21:57;2.13;;;1.40;;
61590;SDS011;57639;52.410;-1.966;2022-12-18T16:25:04;2.17;;;1.60;;
61590;SDS011;57639;52.410;-1.966;2022-12-18T16:28:11;2.17;;;1.25;;
61590;SDS011;57639;52.410;-1.966;2022-12-18T16:31:17;1.85;;;1.20;;
61590;SDS011;57639;52.410;-1.966;2022-12-18T16:34:22;1.73;;;1.30;;
61590;SDS011;57639;52.410;-1.966;2022-12-18T16:37:33;1.83;;;1.30;;
61590;SDS011;57639;52.410;-1.966;2022-12-18T16:40:40;2.20;;;1.35;;
61590;SDS011;57639;52.410;-1.966;2022-12-18T16:44:10;1.33;;;1.20;;
61590;SDS011;57639;52.410;-1.966;2022-12-18T16:47:15;1.40;;;1.10;;
61590;SDS011;57639;52.410;-1.966;2022-12-18T16:50:23;1.38;;;1.13;;
61590;SDS011;57639;52.410;-1.966;2022-12-18T16:53:28;1.80;;;1.30;;
61590;SDS011;57639;52.410;-1.966;2022-12-18T16:56:38;1.48;;;1.08;;
61590;SDS011;57639;52.410;-1.966;2022-12-18T16:59:45;2.50;;;1.23;;
61590;SDS011;57639;52.410;-1.966;2022-12-18T17:02:54;1.58;;;1.08;;
61590;SDS011;57639;52.410;-1.966;2022-12-18T17:06:01;1.42;;;1.10;;
61590;SDS011;57639;52.410;-1.966;2022-12-18T17:09:10;1.20;;;0.85;;
61590;SDS011;57639;52.410;-1.966;2022-12-18T17:12:15;1.30;;;1.10;;
61590;SDS011;57639;52.410;-1.966;2022-12-18T17:15:27;1.40;;;1.07;;
61590;SDS011;57639;52.410;-1.966;2022-12-18T17:18:35;1.77;;;1.27;;
61590;SDS011;57639;52.410;-1.966;2022-12-18T17:21:41;1.48;;;0.98;;
61590;SDS011;57639;52.410;-1.966;2022-12-18T17:24:45;1.20;;;0.85;;
61590;SDS011;57639;52.410;-1.966;2022-12-18T17:27:54;1.20;;;0.90;;
61590;SDS011;57639;52.410;-1.966;2022-12-18T17:31:01;1.50;;;0.90;;
61590;SDS011;57639;52.410;-1.966;2022-12-18T17:34:15;1.20;;;0.80;;
61590;SDS011;57639;52.410;-1.966;2022-12-18T17:37:21;1.50;;;0.80;;
61590;SDS011;57639;52.410;-1.966;2022-12-18T17:40:27;1.20;;;0.77;;
61590;SDS011;57639;52.410;-1.966;2022-12-18T17:43:31;1.60;;;0.90;;
61590;SDS011;57639;52.410;-1.966;2022-12-18T17:46:43;1.13;;;0.88;;
61590;SDS011;57639;52.410;-1.966;2022-12-18T17:49:47;1.10;;;0.90;;
61590;SDS011;57639;52.410;-1.966;2022-12-18T17:52:56;1.35;;;0.98;;
61590;SDS011;57639;52.410;-1.966;2022-12-18T17:56:02;1.42;;;0.90;;
61590;SDS011;57639;52.410;-1.966;2022-12-18T17:59:10;1.30;;;0.90;;
61590;SDS011;57639;52.410;-1.966;2022-12-18T18:02:17;1.20;;;0.90;;
61590;SDS011;57639;52.410;-1.966;2022-12-18T18:05:23;1.03;;;0.80;;
61590;SDS011;57639;52.410;-1.966;2022-12-18T18:08:27;1.40;;;0.70;;
61590;SDS011;57639;52.410;-1.966;2022-12-18T18:11:34;1.10;;;0.88;;
61590;SDS011;57639;52.410;-1.966;2022-12-18T18:14:54;1.00;;;0.90;;
61590;SDS011;57639;52.410;-1.966;2022-12-18T18:18:06;1.25;;;0.90;;
61590;SDS011;57639;52.410;-1.966;2022-12-18T18:24:18;1.08;;;0.70;;
61590;SDS011;57639;52.410;-1.966;2022-12-18T18:27:25;1.00;;;0.70;;
61590;SDS011;57639;52.410;-1.966;2022-12-18T18:30:31;1.02;;;0.90;;
61590;SDS011;57639;52.410;-1.966;2022-12-18T18:33:41;1.40;;;1.00;;
61590;SDS011;57639;52.410;-1.966;2022-12-18T18:36:51;1.40;;;0.80;;
61590;SDS011;57639;52.410;-1.966;2022-12-18T18:39:58;1.02;;;0.70;;
61590;SDS011;57639;52.410;-1.966;2022-12-18T18:43:05;1.50;;;0.90;;
61590;SDS011;57639;52.410;-1.966;2022-12-18T18:46:14;1.00;;;0.70;;
61590;SDS011;57639;52.410;-1.966;2022-12-18T18:49:27;0.68;;;0.50;;
61590;SDS011;57639;52.410;-1.966;2022-12-18T18:52:34;0.90;;;0.70;;
61590;SDS011;57639;52.410;-1.966;2022-12-18T18:55:40;1.05;;;0.63;;
61590;SDS011;57639;52.410;-1.966;2022-12-18T18:58:47;1.20;;;0.80;;